createdAt,value
2023-05-13T00:00:26.975Z,57.85
2023-05-13T00:02:30.213Z,57.07
2023-05-13T00:04:31.870Z,57.26
2023-05-13T00:06:33.537Z,57.67
2023-05-13T00:08:37.668Z,58.55
2023-05-13T00:10:39.846Z,58.47
2023-05-13T00:12:41.823Z,58.39
2023-05-13T00:14:44.026Z,58.18
2023-05-13T00:16:45.639Z,59.14
2023-05-13T00:18:48.924Z,58.91
2023-05-13T00:20:50.863Z,58.90
2023-05-13T00:22:54.556Z,58.15
2023-05-13T00:24:56.132Z,57.78
2023-05-13T00:26:57.787Z,57.95
2023-05-13T00:28:59.743Z,57.45
2023-05-13T00:31:01.391Z,57.30
2023-05-13T00:33:03.262Z,57.41
2023-05-13T00:35:07.095Z,57.15
2023-05-13T00:37:08.876Z,57.73
2023-05-13T00:39:10.777Z,57.38
2023-05-13T00:41:12.597Z,57.50
2023-05-13T00:43:14.448Z,57.80
2023-05-13T00:45:18.184Z,58.13
2023-05-13T00:47:20.234Z,58.09
2023-05-13T00:49:22.211Z,58.21
2023-05-13T00:51:25.547Z,57.49
2023-05-13T00:53:27.321Z,58.35
2023-05-13T00:55:29.170Z,58.47
2023-05-13T00:57:30.859Z,58.40
2023-05-13T00:59:32.423Z,58.35
2023-05-13T01:01:42.115Z,56.53
2023-05-13T01:03:51.366Z,57.16
2023-05-13T01:06:01.762Z,56.69
2023-05-13T01:08:15.395Z,56.06
2023-05-13T01:10:28.054Z,55.47
2023-05-13T01:12:33.298Z,57.74
2023-05-13T01:14:40.523Z,57.11
2023-05-13T01:16:49.488Z,57.11
2023-05-13T01:18:56.805Z,57.43
2023-05-13T01:21:01.070Z,58.53
2023-05-13T01:23:04.117Z,58.08
2023-05-13T01:25:06.311Z,58.79
2023-05-13T01:27:08.451Z,59.43
2023-05-13T01:29:10.466Z,59.00
2023-05-13T01:31:13.168Z,58.93
2023-05-13T01:33:17.324Z,58.77
2023-05-13T01:35:20.817Z,59.81
2023-05-13T01:37:22.940Z,59.95
2023-05-13T01:39:26.593Z,59.78
2023-05-13T01:41:28.985Z,59.58
2023-05-13T01:43:31.021Z,59.82
2023-05-13T01:45:32.815Z,59.75
2023-05-13T01:47:34.719Z,59.90
2023-05-13T01:49:36.688Z,59.68
2023-05-13T01:51:38.658Z,60.09
2023-05-13T01:53:40.292Z,59.71
2023-05-13T01:55:43.285Z,59.96
2023-05-13T01:57:45.582Z,59.48
2023-05-13T01:59:47.201Z,60.36
2023-05-13T02:01:49.280Z,60.74
2023-05-13T02:03:51.541Z,60.48
2023-05-13T02:05:53.687Z,59.75
2023-05-13T02:07:55.700Z,60.56
2023-05-13T02:09:57.349Z,59.87
2023-05-13T02:12:00.575Z,59.60
2023-05-13T02:14:02.383Z,59.89
2023-05-13T02:16:05.244Z,60.09
2023-05-13T02:18:06.923Z,60.17
2023-05-13T02:20:10.048Z,60.63
2023-05-13T02:22:12.065Z,60.73
2023-05-13T02:24:13.724Z,60.78
2023-05-13T02:26:15.265Z,61.10
2023-05-13T02:28:18.229Z,61.12
2023-05-13T02:30:20.569Z,61.19
2023-05-13T02:32:22.464Z,61.49
2023-05-13T02:34:24.084Z,61.77
2023-05-13T02:36:25.624Z,60.89
2023-05-13T02:38:27.369Z,61.16
2023-05-13T02:40:28.913Z,60.58
2023-05-13T02:42:30.494Z,60.61
2023-05-13T02:44:33.594Z,60.93
2023-05-13T02:46:35.503Z,61.18
2023-05-13T02:48:37.142Z,61.75
2023-05-13T02:50:39.227Z,61.54
2023-05-13T02:52:41.174Z,61.39
2023-05-13T02:54:43.172Z,61.52
2023-05-13T02:56:44.827Z,61.47
2023-05-13T02:58:46.848Z,61.64
2023-05-13T03:00:49.802Z,61.71
2023-05-13T03:02:51.752Z,62.01
2023-05-13T03:04:53.573Z,61.65
2023-05-13T03:06:55.212Z,62.50
2023-05-13T03:08:57.063Z,62.45
2023-05-13T03:10:59.134Z,62.55
2023-05-13T03:13:01.482Z,62.01
2023-05-13T03:15:03.265Z,62.33
2023-05-13T03:17:07.214Z,62.81
2023-05-13T03:19:08.960Z,62.40
2023-05-13T03:21:10.852Z,62.34
2023-05-13T03:23:12.803Z,62.10
2023-05-13T03:25:14.455Z,61.64
2023-05-13T03:27:16.242Z,61.81
2023-05-13T03:29:18.139Z,62.31
2023-05-13T03:31:20.028Z,61.98
2023-05-13T03:33:23.328Z,61.84
2023-05-13T03:35:24.821Z,61.50
2023-05-13T03:37:26.670Z,61.31
2023-05-13T03:39:28.472Z,61.68
2023-05-13T03:41:30.089Z,61.17
2023-05-13T03:43:31.977Z,61.46
2023-05-13T03:45:33.503Z,61.05
2023-05-13T03:47:35.357Z,60.68
2023-05-13T03:49:38.336Z,60.56
2023-05-13T03:51:39.968Z,59.94
2023-05-13T03:53:41.824Z,60.03
2023-05-13T03:55:43.692Z,60.76
2023-05-13T03:57:51.403Z,59.75
2023-05-13T03:59:52.998Z,60.28
2023-05-13T04:01:54.897Z,59.62
2023-05-13T04:03:56.698Z,59.92
2023-05-13T04:05:59.910Z,59.69
2023-05-13T04:08:01.568Z,59.79
2023-05-13T04:10:03.472Z,59.88
2023-05-13T04:12:05.821Z,60.18
2023-05-13T04:14:07.432Z,59.81
2023-05-13T04:16:09.606Z,59.22
2023-05-13T04:18:11.230Z,59.66
2023-05-13T04:20:13.278Z,59.21
2023-05-13T04:22:16.224Z,59.33
2023-05-13T04:24:17.921Z,58.77
2023-05-13T04:26:19.514Z,59.43
2023-05-13T04:28:21.366Z,59.01
2023-05-13T04:30:23.602Z,58.38
2023-05-13T04:32:25.313Z,59.13
2023-05-13T04:34:27.162Z,58.34
2023-05-13T04:36:28.708Z,58.60
2023-05-13T04:38:32.372Z,58.39
2023-05-13T04:40:33.957Z,57.97
2023-05-13T04:42:35.787Z,57.96
2023-05-13T04:44:37.567Z,58.15
2023-05-13T04:46:39.163Z,58.01
2023-05-13T04:48:41.198Z,57.49
2023-05-13T04:50:45.962Z,56.96
2023-05-13T04:52:48.185Z,56.96
2023-05-13T04:54:51.897Z,57.04
2023-05-13T04:56:53.840Z,56.97
2023-05-13T04:58:55.416Z,56.95
2023-05-13T05:00:57.053Z,56.67
2023-05-13T05:02:58.788Z,55.94
2023-05-13T05:05:00.725Z,55.07
2023-05-13T05:07:02.336Z,54.99
2023-05-13T05:09:04.054Z,53.49
2023-05-13T05:11:06.976Z,53.00
2023-05-13T05:13:09.547Z,54.29
2023-05-13T05:15:11.998Z,53.67
2023-05-13T05:17:13.578Z,54.14
2023-05-13T05:19:15.915Z,53.42
2023-05-13T05:21:17.564Z,52.63
2023-05-13T05:23:19.203Z,52.12
2023-05-13T05:25:21.037Z,50.22
2023-05-13T05:27:24.346Z,50.05
2023-05-13T05:29:25.996Z,48.87
2023-05-13T05:31:27.672Z,49.79
2023-05-13T05:33:29.585Z,52.03
2023-05-13T05:35:31.414Z,52.19
2023-05-13T05:37:33.386Z,52.10
2023-05-13T05:39:35.285Z,51.75
2023-05-13T05:41:37.144Z,50.59
2023-05-13T05:43:40.592Z,51.26
2023-05-13T05:45:42.308Z,51.65
2023-05-13T05:47:43.861Z,51.05
2023-05-13T05:49:45.411Z,49.92
2023-05-13T05:51:47.026Z,49.51
2023-05-13T05:53:48.636Z,48.81
2023-05-13T05:55:51.673Z,48.84
2023-05-13T05:57:54.724Z,48.77
2023-05-13T05:59:58.454Z,48.91
2023-05-13T06:02:00.049Z,48.52
2023-05-13T06:04:01.781Z,47.87
2023-05-13T06:06:03.974Z,48.12
2023-05-13T06:08:05.872Z,48.49
2023-05-13T06:10:08.447Z,47.91
2023-05-13T06:12:10.958Z,46.28
2023-05-13T06:14:12.580Z,46.19
2023-05-13T06:16:15.575Z,45.37
2023-05-13T06:18:17.201Z,47.05
2023-05-13T06:20:19.337Z,45.58
2023-05-13T06:22:21.161Z,45.99
2023-05-13T06:24:22.736Z,45.59
2023-05-13T06:26:24.825Z,45.29
2023-05-13T06:28:26.663Z,45.42
2023-05-13T06:30:28.526Z,45.23
2023-05-13T06:32:31.637Z,45.30
2023-05-13T06:34:33.183Z,45.77
2023-05-13T06:36:34.830Z,45.52
2023-05-13T06:38:36.654Z,45.57
2023-05-13T06:40:38.452Z,44.26
2023-05-13T06:42:40.293Z,42.99
2023-05-13T06:44:42.210Z,42.99
2023-05-13T06:46:43.855Z,42.12
2023-05-13T06:48:46.924Z,42.42
2023-05-13T06:50:48.540Z,42.00
2023-05-13T06:52:50.082Z,40.47
2023-05-13T06:54:51.692Z,39.89
2023-05-13T06:56:53.738Z,39.43
2023-05-13T06:58:55.852Z,39.48
2023-05-13T07:00:57.759Z,39.68
2023-05-13T07:02:59.750Z,40.01
2023-05-13T07:05:02.764Z,39.06
2023-05-13T07:07:04.704Z,39.24
2023-05-13T07:09:08.472Z,38.72
2023-05-13T07:11:10.116Z,38.56
2023-05-13T07:13:12.397Z,39.31
2023-05-13T07:15:14.030Z,37.64
2023-05-13T07:17:15.870Z,37.92
2023-05-13T07:19:17.685Z,38.42
2023-05-13T07:21:20.867Z,38.48
2023-05-13T07:23:23.478Z,37.53
2023-05-13T07:25:25.111Z,37.43
2023-05-13T07:27:26.744Z,37.87
2023-05-13T07:29:28.560Z,37.35
2023-05-13T07:31:31.091Z,37.57
2023-05-13T07:33:32.746Z,37.28
2023-05-13T07:35:34.636Z,37.28
2023-05-13T07:37:37.943Z,37.05
2023-05-13T07:39:39.568Z,36.66
2023-05-13T07:41:41.183Z,36.56
2023-05-13T07:43:43.315Z,36.59
2023-05-13T07:45:44.885Z,35.74
2023-05-13T07:47:46.775Z,36.72
2023-05-13T07:49:49.269Z,35.86
2023-05-13T07:51:50.919Z,35.79
2023-05-13T07:53:53.968Z,35.93
2023-05-13T07:55:55.806Z,35.14
2023-05-13T07:57:57.485Z,35.34
2023-05-13T07:59:59.388Z,35.09
2023-05-13T08:02:01.926Z,34.55
2023-05-13T08:04:03.959Z,34.62
2023-05-13T08:06:05.903Z,34.40
2023-05-13T08:08:07.517Z,33.86
2023-05-13T08:10:11.282Z,33.59
2023-05-13T08:12:12.855Z,33.78
2023-05-13T08:14:14.392Z,32.81
2023-05-13T08:16:16.252Z,32.65
2023-05-13T08:18:18.267Z,31.83
2023-05-13T08:20:20.531Z,32.34
2023-05-13T08:22:23.129Z,32.58
2023-05-13T08:24:24.879Z,32.04
2023-05-13T08:26:28.228Z,31.83
2023-05-13T08:28:30.250Z,31.10
2023-05-13T08:30:32.063Z,30.54
2023-05-13T08:32:33.728Z,30.40
2023-05-13T08:34:35.385Z,29.54
2023-05-13T08:36:36.958Z,28.45
2023-05-13T08:38:38.827Z,30.26
2023-05-13T08:40:42.161Z,30.76
2023-05-13T08:42:48.148Z,31.08
2023-05-13T08:44:52.476Z,30.45
2023-05-13T08:47:02.222Z,31.16
2023-05-13T08:49:04.833Z,28.82
2023-05-13T08:51:06.958Z,28.17
2023-05-13T08:53:11.319Z,27.13
2023-05-13T08:55:13.231Z,27.08
2023-05-13T08:57:16.214Z,25.70
2023-05-13T08:59:19.757Z,26.59
2023-05-13T09:01:22.902Z,26.05
2023-05-13T09:03:28.921Z,26.88
2023-05-13T09:05:31.505Z,26.10
2023-05-13T09:07:33.760Z,26.03
2023-05-13T09:09:37.247Z,25.05
2023-05-13T09:11:39.082Z,25.24
2023-05-13T09:13:43.360Z,25.85
2023-05-13T09:15:46.356Z,25.61
2023-05-13T09:17:49.750Z,24.01
2023-05-13T09:19:51.670Z,23.66
2023-05-13T09:21:54.077Z,23.49
2023-05-13T09:24:11.319Z,26.91
2023-05-13T09:26:26.891Z,26.99
2023-05-13T09:28:28.492Z,24.10
2023-05-13T09:30:33.946Z,25.98
2023-05-13T09:32:37.417Z,24.80
2023-05-13T09:34:40.363Z,24.13
2023-05-13T09:36:42.021Z,23.33
2023-05-13T09:38:43.934Z,23.59
2023-05-13T09:40:52.235Z,25.59
2023-05-13T09:42:57.820Z,25.28
2023-05-13T09:45:05.359Z,25.13
2023-05-13T09:47:07.130Z,23.17
2023-05-13T09:49:10.787Z,23.12
2023-05-13T09:51:12.406Z,22.28
2023-05-13T09:53:14.217Z,22.96
2023-05-13T09:55:16.342Z,22.22
2023-05-13T09:57:18.022Z,21.57
2023-05-13T09:59:19.616Z,22.06
2023-05-13T10:01:22.196Z,22.28
